Yaroslavl', Russia
Current Conditions -  °F | °C
As of 8:30 PM on Tuesday 21 Oct 2014 (Local Time) from UUDL Reporting Station
Snow Showers Snow Showers  
Wind Chill: 11°   Ceiling: 1600
Heat Index: 23°   Visibility: 3mi
Dew Point: 19°   Wind: 13mph
Humidity: 86%   Direction: 360°N
Pressure: 29.53"   Gusts: NA
Location:  57.41°N, 39.46°E
Report Text: UUDL 211730Z 36006MPS 5000 -SHSN OVC016CB M05/M07 Q1000 NOSIGRMK QFE742 23490336
Loading
Personal Weather Stations






























Interactive Weather Map
Tropical Storm Tracking
New forecast layout! Learn more

10-Day Weather Forecast

Advertisements
Track Severe Weather on mobile